sensor_id;sensor_type;location;lat;lon;timestamp;temperature;humidity
52034;DHT22;38045;52.988;6.536;2024-03-22T00:00:07;9.00;75.90
52034;DHT22;38045;52.988;6.536;2024-03-22T00:02:37;9.00;75.80
52034;DHT22;38045;52.988;6.536;2024-03-22T00:05:03;9.00;75.80
52034;DHT22;38045;52.988;6.536;2024-03-22T00:07:28;9.00;75.80
52034;DHT22;38045;52.988;6.536;2024-03-22T00:09:54;9.00;75.80
52034;DHT22;38045;52.988;6.536;2024-03-22T00:12:20;9.00;75.90
52034;DHT22;38045;52.988;6.536;2024-03-22T00:14:45;9.00;75.90
52034;DHT22;38045;52.988;6.536;2024-03-22T00:17:11;9.00;75.90
52034;DHT22;38045;52.988;6.536;2024-03-22T00:19:36;9.10;75.90
52034;DHT22;38045;52.988;6.536;2024-03-22T00:22:02;9.10;75.90
52034;DHT22;38045;52.988;6.536;2024-03-22T00:24:28;9.10;75.90
52034;DHT22;38045;52.988;6.536;2024-03-22T00:26:53;9.10;75.90
52034;DHT22;38045;52.988;6.536;2024-03-22T00:29:19;9.10;76.00
52034;DHT22;38045;52.988;6.536;2024-03-22T00:31:44;9.20;76.10
52034;DHT22;38045;52.988;6.536;2024-03-22T00:34:10;9.20;76.20
52034;DHT22;38045;52.988;6.536;2024-03-22T00:36:35;9.20;76.10
52034;DHT22;38045;52.988;6.536;2024-03-22T00:39:01;9.20;76.10
52034;DHT22;38045;52.988;6.536;2024-03-22T00:41:27;9.20;76.20
52034;DHT22;38045;52.988;6.536;2024-03-22T00:43:52;9.20;76.20
52034;DHT22;38045;52.988;6.536;2024-03-22T00:46:18;9.20;76.20
52034;DHT22;38045;52.988;6.536;2024-03-22T00:48:43;9.20;76.20
52034;DHT22;38045;52.988;6.536;2024-03-22T00:51:09;9.20;76.20
52034;DHT22;38045;52.988;6.536;2024-03-22T00:53:35;9.20;76.30
52034;DHT22;38045;52.988;6.536;2024-03-22T00:56:00;9.20;76.40
52034;DHT22;38045;52.988;6.536;2024-03-22T00:58:27;9.20;76.40
52034;DHT22;38045;52.988;6.536;2024-03-22T01:00:53;9.20;76.50
52034;DHT22;38045;52.988;6.536;2024-03-22T01:03:19;9.20;76.50
52034;DHT22;38045;52.988;6.536;2024-03-22T01:05:44;9.20;76.50
52034;DHT22;38045;52.988;6.536;2024-03-22T01:08:10;9.20;76.50
52034;DHT22;38045;52.988;6.536;2024-03-22T01:10:35;9.20;76.60
52034;DHT22;38045;52.988;6.536;2024-03-22T01:13:01;9.20;76.50
52034;DHT22;38045;52.988;6.536;2024-03-22T01:15:27;9.20;76.50
52034;DHT22;38045;52.988;6.536;2024-03-22T01:17:53;9.20;76.70
52034;DHT22;38045;52.988;6.536;2024-03-22T01:20:18;9.20;76.80
52034;DHT22;38045;52.988;6.536;2024-03-22T01:22:44;9.20;76.80
52034;DHT22;38045;52.988;6.536;2024-03-22T01:25:10;9.20;76.90
52034;DHT22;38045;52.988;6.536;2024-03-22T01:27:35;9.20;76.80
52034;DHT22;38045;52.988;6.536;2024-03-22T01:30:02;9.20;76.90
52034;DHT22;38045;52.988;6.536;2024-03-22T01:32:27;9.20;77.00
52034;DHT22;38045;52.988;6.536;2024-03-22T01:34:53;9.20;77.00
52034;DHT22;38045;52.988;6.536;2024-03-22T01:37:19;9.30;77.10
52034;DHT22;38045;52.988;6.536;2024-03-22T01:39:44;9.30;77.10
52034;DHT22;38045;52.988;6.536;2024-03-22T01:42:10;9.40;77.20
52034;DHT22;38045;52.988;6.536;2024-03-22T01:44:35;9.40;77.20
52034;DHT22;38045;52.988;6.536;2024-03-22T01:47:01;9.40;77.30
52034;DHT22;38045;52.988;6.536;2024-03-22T01:49:28;9.40;77.30
52034;DHT22;38045;52.988;6.536;2024-03-22T01:51:55;9.40;77.50
52034;DHT22;38045;52.988;6.536;2024-03-22T01:54:21;9.40;77.40
52034;DHT22;38045;52.988;6.536;2024-03-22T01:56:47;9.40;77.50
52034;DHT22;38045;52.988;6.536;2024-03-22T01:59:13;9.40;77.60
52034;DHT22;38045;52.988;6.536;2024-03-22T02:01:39;9.40;77.50
52034;DHT22;38045;52.988;6.536;2024-03-22T02:04:05;9.50;77.70
52034;DHT22;38045;52.988;6.536;2024-03-22T02:06:31;9.50;77.90
52034;DHT22;38045;52.988;6.536;2024-03-22T02:08:58;9.60;77.80
52034;DHT22;38045;52.988;6.536;2024-03-22T02:11:24;9.60;77.80
52034;DHT22;38045;52.988;6.536;2024-03-22T02:13:51;9.60;77.90
52034;DHT22;38045;52.988;6.536;2024-03-22T02:16:16;9.60;77.90
52034;DHT22;38045;52.988;6.536;2024-03-22T02:18:42;9.70;77.90
52034;DHT22;38045;52.988;6.536;2024-03-22T02:21:08;9.70;78.00
52034;DHT22;38045;52.988;6.536;2024-03-22T02:23:34;9.70;78.10
52034;DHT22;38045;52.988;6.536;2024-03-22T02:26:01;9.70;78.20
52034;DHT22;38045;52.988;6.536;2024-03-22T02:28:28;9.80;78.10
52034;DHT22;38045;52.988;6.536;2024-03-22T02:30:53;9.80;78.20
52034;DHT22;38045;52.988;6.536;2024-03-22T02:33:19;9.80;78.30
52034;DHT22;38045;52.988;6.536;2024-03-22T02:35:48;9.80;78.20
52034;DHT22;38045;52.988;6.536;2024-03-22T02:38:14;9.80;78.30
52034;DHT22;38045;52.988;6.536;2024-03-22T02:40:40;9.80;78.30
52034;DHT22;38045;52.988;6.536;2024-03-22T02:43:06;9.90;78.30
52034;DHT22;38045;52.988;6.536;2024-03-22T02:45:32;9.90;78.40
52034;DHT22;38045;52.988;6.536;2024-03-22T02:47:57;9.90;78.40
52034;DHT22;38045;52.988;6.536;2024-03-22T02:50:23;9.90;78.50
52034;DHT22;38045;52.988;6.536;2024-03-22T02:52:49;9.90;78.50
52034;DHT22;38045;52.988;6.536;2024-03-22T02:55:15;9.90;78.40
52034;DHT22;38045;52.988;6.536;2024-03-22T02:57:41;9.90;78.40
52034;DHT22;38045;52.988;6.536;2024-03-22T03:00:07;9.90;78.40
52034;DHT22;38045;52.988;6.536;2024-03-22T03:02:33;10.00;78.50
52034;DHT22;38045;52.988;6.536;2024-03-22T03:04:58;9.90;78.70
52034;DHT22;38045;52.988;6.536;2024-03-22T03:07:25;10.00;78.60
52034;DHT22;38045;52.988;6.536;2024-03-22T03:09:50;10.00;78.50
52034;DHT22;38045;52.988;6.536;2024-03-22T03:12:16;10.00;78.70
52034;DHT22;38045;52.988;6.536;2024-03-22T03:14:42;10.00;78.60
52034;DHT22;38045;52.988;6.536;2024-03-22T03:17:07;10.00;78.70
52034;DHT22;38045;52.988;6.536;2024-03-22T03:19:33;10.00;78.70
52034;DHT22;38045;52.988;6.536;2024-03-22T03:21:59;10.00;78.80
52034;DHT22;38045;52.988;6.536;2024-03-22T03:24:24;10.00;78.70
52034;DHT22;38045;52.988;6.536;2024-03-22T03:26:50;10.00;78.90
52034;DHT22;38045;52.988;6.536;2024-03-22T03:29:15;10.00;79.00
52034;DHT22;38045;52.988;6.536;2024-03-22T03:31:41;10.00;78.80
52034;DHT22;38045;52.988;6.536;2024-03-22T03:34:07;10.00;79.00
52034;DHT22;38045;52.988;6.536;2024-03-22T03:36:32;10.00;79.00
52034;DHT22;38045;52.988;6.536;2024-03-22T03:38:58;10.00;79.10
52034;DHT22;38045;52.988;6.536;2024-03-22T03:41:23;10.00;79.10
52034;DHT22;38045;52.988;6.536;2024-03-22T03:43:49;10.00;79.10
52034;DHT22;38045;52.988;6.536;2024-03-22T03:46:14;10.00;79.10
52034;DHT22;38045;52.988;6.536;2024-03-22T03:48:40;10.00;79.10
52034;DHT22;38045;52.988;6.536;2024-03-22T03:51:05;10.00;79.30
52034;DHT22;38045;52.988;6.536;2024-03-22T03:53:31;10.00;79.10
52034;DHT22;38045;52.988;6.536;2024-03-22T03:55:57;10.00;79.30
52034;DHT22;38045;52.988;6.536;2024-03-22T03:58:22;10.00;79.30
52034;DHT22;38045;52.988;6.536;2024-03-22T04:00:48;10.00;79.20
52034;DHT22;38045;52.988;6.536;2024-03-22T04:03:14;10.00;79.10
52034;DHT22;38045;52.988;6.536;2024-03-22T04:05:39;10.00;79.30
52034;DHT22;38045;52.988;6.536;2024-03-22T04:08:05;10.10;79.30
52034;DHT22;38045;52.988;6.536;2024-03-22T04:10:31;10.00;79.20
52034;DHT22;38045;52.988;6.536;2024-03-22T04:12:57;10.10;79.20
52034;DHT22;38045;52.988;6.536;2024-03-22T04:15:22;10.10;79.20
52034;DHT22;38045;52.988;6.536;2024-03-22T04:17:48;10.10;79.20
52034;DHT22;38045;52.988;6.536;2024-03-22T04:20:13;10.10;79.20
52034;DHT22;38045;52.988;6.536;2024-03-22T04:22:39;10.10;79.10
52034;DHT22;38045;52.988;6.536;2024-03-22T04:25:05;10.10;79.10
52034;DHT22;38045;52.988;6.536;2024-03-22T04:27:31;10.10;79.00
52034;DHT22;38045;52.988;6.536;2024-03-22T04:29:56;10.10;79.00
52034;DHT22;38045;52.988;6.536;2024-03-22T04:32:22;10.10;79.00
52034;DHT22;38045;52.988;6.536;2024-03-22T04:34:48;10.10;78.90
52034;DHT22;38045;52.988;6.536;2024-03-22T04:37:13;10.10;78.80
52034;DHT22;38045;52.988;6.536;2024-03-22T04:39:40;10.10;78.90
52034;DHT22;38045;52.988;6.536;2024-03-22T04:42:06;10.10;78.60
52034;DHT22;38045;52.988;6.536;2024-03-22T04:44:32;10.10;78.60
52034;DHT22;38045;52.988;6.536;2024-03-22T04:46:57;10.10;78.40
52034;DHT22;38045;52.988;6.536;2024-03-22T04:49:23;10.10;78.50
52034;DHT22;38045;52.988;6.536;2024-03-22T04:51:49;10.20;78.50
52034;DHT22;38045;52.988;6.536;2024-03-22T04:54:14;10.10;78.50
52034;DHT22;38045;52.988;6.536;2024-03-22T04:56:40;10.10;78.40
52034;DHT22;38045;52.988;6.536;2024-03-22T04:59:06;10.10;78.50
52034;DHT22;38045;52.988;6.536;2024-03-22T05:01:31;10.10;78.30
52034;DHT22;38045;52.988;6.536;2024-03-22T05:03:57;10.10;78.20
52034;DHT22;38045;52.988;6.536;2024-03-22T05:06:22;10.10;78.20
52034;DHT22;38045;52.988;6.536;2024-03-22T05:08:48;10.10;78.30
52034;DHT22;38045;52.988;6.536;2024-03-22T05:11:13;10.10;78.30
52034;DHT22;38045;52.988;6.536;2024-03-22T05:13:39;10.10;78.30
52034;DHT22;38045;52.988;6.536;2024-03-22T05:16:07;10.10;78.50
52034;DHT22;38045;52.988;6.536;2024-03-22T05:18:33;10.10;78.40
52034;DHT22;38045;52.988;6.536;2024-03-22T05:20:58;10.10;78.50
52034;DHT22;38045;52.988;6.536;2024-03-22T05:23:24;10.00;78.50
52034;DHT22;38045;52.988;6.536;2024-03-22T05:25:50;10.00;78.60
52034;DHT22;38045;52.988;6.536;2024-03-22T05:28:15;10.00;78.70
52034;DHT22;38045;52.988;6.536;2024-03-22T05:30:41;10.00;78.70
52034;DHT22;38045;52.988;6.536;2024-03-22T05:33:06;10.00;78.60
52034;DHT22;38045;52.988;6.536;2024-03-22T05:35:32;10.00;78.70
52034;DHT22;38045;52.988;6.536;2024-03-22T05:37:58;10.00;78.70
52034;DHT22;38045;52.988;6.536;2024-03-22T05:40:23;10.00;78.70
52034;DHT22;38045;52.988;6.536;2024-03-22T05:42:49;10.00;78.70
52034;DHT22;38045;52.988;6.536;2024-03-22T05:45:15;9.90;78.70
52034;DHT22;38045;52.988;6.536;2024-03-22T05:47:40;9.90;78.90
52034;DHT22;38045;52.988;6.536;2024-03-22T05:50:06;9.90;78.90
52034;DHT22;38045;52.988;6.536;2024-03-22T05:52:33;9.80;79.00
52034;DHT22;38045;52.988;6.536;2024-03-22T05:54:59;9.80;79.10
52034;DHT22;38045;52.988;6.536;2024-03-22T05:57:25;9.80;79.20
52034;DHT22;38045;52.988;6.536;2024-03-22T05:59:50;9.80;79.30
52034;DHT22;38045;52.988;6.536;2024-03-22T06:02:16;9.70;79.20
52034;DHT22;38045;52.988;6.536;2024-03-22T06:04:42;9.80;79.30
52034;DHT22;38045;52.988;6.536;2024-03-22T06:07:08;9.70;79.30
52034;DHT22;38045;52.988;6.536;2024-03-22T06:09:33;9.70;79.30
52034;DHT22;38045;52.988;6.536;2024-03-22T06:12:04;9.70;79.30
52034;DHT22;38045;52.988;6.536;2024-03-22T06:14:30;9.70;79.30
52034;DHT22;38045;52.988;6.536;2024-03-22T06:16:55;9.70;79.30
52034;DHT22;38045;52.988;6.536;2024-03-22T06:19:21;9.70;79.40
52034;DHT22;38045;52.988;6.536;2024-03-22T06:21:46;9.70;79.50
52034;DHT22;38045;52.988;6.536;2024-03-22T06:24:12;9.70;79.50
52034;DHT22;38045;52.988;6.536;2024-03-22T06:26:38;9.70;79.60
52034;DHT22;38045;52.988;6.536;2024-03-22T06:29:03;9.70;79.50
52034;DHT22;38045;52.988;6.536;2024-03-22T06:31:29;9.70;79.70
52034;DHT22;38045;52.988;6.536;2024-03-22T06:33:54;9.60;79.60
52034;DHT22;38045;52.988;6.536;2024-03-22T06:36:22;9.60;79.60
52034;DHT22;38045;52.988;6.536;2024-03-22T06:38:47;9.70;79.60
52034;DHT22;38045;52.988;6.536;2024-03-22T06:41:13;9.70;79.60
52034;DHT22;38045;52.988;6.536;2024-03-22T06:43:38;9.70;79.60
52034;DHT22;38045;52.988;6.536;2024-03-22T06:46:04;9.70;79.50
52034;DHT22;38045;52.988;6.536;2024-03-22T06:48:29;9.70;79.50
52034;DHT22;38045;52.988;6.536;2024-03-22T06:50:55;9.70;79.50
52034;DHT22;38045;52.988;6.536;2024-03-22T06:53:21;9.70;79.40
52034;DHT22;38045;52.988;6.536;2024-03-22T06:55:46;9.70;79.40
52034;DHT22;38045;52.988;6.536;2024-03-22T06:58:12;9.70;79.40
52034;DHT22;38045;52.988;6.536;2024-03-22T07:00:37;9.70;79.40
52034;DHT22;38045;52.988;6.536;2024-03-22T07:03:03;9.70;79.40
52034;DHT22;38045;52.988;6.536;2024-03-22T07:05:29;9.70;79.30
52034;DHT22;38045;52.988;6.536;2024-03-22T07:07:55;9.70;79.30
52034;DHT22;38045;52.988;6.536;2024-03-22T07:10:23;9.80;79.30
52034;DHT22;38045;52.988;6.536;2024-03-22T07:12:53;9.80;79.20
52034;DHT22;38045;52.988;6.536;2024-03-22T07:15:19;9.80;79.00
52034;DHT22;38045;52.988;6.536;2024-03-22T07:17:45;9.80;79.20
52034;DHT22;38045;52.988;6.536;2024-03-22T07:20:10;9.80;79.10
52034;DHT22;38045;52.988;6.536;2024-03-22T07:22:36;9.80;79.00
52034;DHT22;38045;52.988;6.536;2024-03-22T07:25:02;9.80;79.00
52034;DHT22;38045;52.988;6.536;2024-03-22T07:27:27;9.80;79.00
52034;DHT22;38045;52.988;6.536;2024-03-22T07:29:55;9.80;78.90
52034;DHT22;38045;52.988;6.536;2024-03-22T07:32:20;9.80;78.80
52034;DHT22;38045;52.988;6.536;2024-03-22T07:34:46;9.80;79.00
52034;DHT22;38045;52.988;6.536;2024-03-22T07:37:12;9.80;78.90
52034;DHT22;38045;52.988;6.536;2024-03-22T07:39:37;9.80;78.80
52034;DHT22;38045;52.988;6.536;2024-03-22T07:42:03;9.90;78.40
52034;DHT22;38045;52.988;6.536;2024-03-22T07:44:29;9.90;78.50
52034;DHT22;38045;52.988;6.536;2024-03-22T07:46:54;9.90;78.40
52034;DHT22;38045;52.988;6.536;2024-03-22T07:49:20;9.90;78.50
52034;DHT22;38045;52.988;6.536;2024-03-22T07:51:46;9.90;78.60
52034;DHT22;38045;52.988;6.536;2024-03-22T07:54:11;9.80;78.70
52034;DHT22;38045;52.988;6.536;2024-03-22T07:56:37;9.80;78.70
52034;DHT22;38045;52.988;6.536;2024-03-22T07:59:02;9.80;78.80
52034;DHT22;38045;52.988;6.536;2024-03-22T08:01:28;9.80;78.90
52034;DHT22;38045;52.988;6.536;2024-03-22T08:03:54;9.70;79.00
52034;DHT22;38045;52.988;6.536;2024-03-22T08:06:19;9.70;79.10
52034;DHT22;38045;52.988;6.536;2024-03-22T08:08:45;9.70;79.20
52034;DHT22;38045;52.988;6.536;2024-03-22T08:11:10;9.70;79.40
52034;DHT22;38045;52.988;6.536;2024-03-22T08:13:36;9.60;79.60
52034;DHT22;38045;52.988;6.536;2024-03-22T08:16:02;9.60;79.70
52034;DHT22;38045;52.988;6.536;2024-03-22T08:18:28;9.50;79.80
52034;DHT22;38045;52.988;6.536;2024-03-22T08:20:54;9.60;80.00
52034;DHT22;38045;52.988;6.536;2024-03-22T08:23:20;9.50;80.30
52034;DHT22;38045;52.988;6.536;2024-03-22T08:25:48;9.50;80.30
52034;DHT22;38045;52.988;6.536;2024-03-22T08:28:14;9.50;80.50
52034;DHT22;38045;52.988;6.536;2024-03-22T08:30:40;9.40;80.60
52034;DHT22;38045;52.988;6.536;2024-03-22T08:33:05;9.40;80.40
52034;DHT22;38045;52.988;6.536;2024-03-22T08:35:31;9.50;80.40
52034;DHT22;38045;52.988;6.536;2024-03-22T08:37:57;9.50;80.60
52034;DHT22;38045;52.988;6.536;2024-03-22T08:40:22;9.40;80.70
52034;DHT22;38045;52.988;6.536;2024-03-22T08:42:48;9.40;81.00
52034;DHT22;38045;52.988;6.536;2024-03-22T08:45:14;9.40;81.10
52034;DHT22;38045;52.988;6.536;2024-03-22T08:47:42;9.40;81.10
52034;DHT22;38045;52.988;6.536;2024-03-22T08:50:08;9.40;81.00
52034;DHT22;38045;52.988;6.536;2024-03-22T08:52:33;9.50;81.10
52034;DHT22;38045;52.988;6.536;2024-03-22T08:55:01;9.40;81.20
52034;DHT22;38045;52.988;6.536;2024-03-22T08:57:27;9.40;81.50
52034;DHT22;38045;52.988;6.536;2024-03-22T08:59:52;9.40;81.20
52034;DHT22;38045;52.988;6.536;2024-03-22T09:02:18;9.40;81.40
52034;DHT22;38045;52.988;6.536;2024-03-22T09:04:43;9.40;81.50
52034;DHT22;38045;52.988;6.536;2024-03-22T09:07:09;9.40;81.50
52034;DHT22;38045;52.988;6.536;2024-03-22T09:09:35;9.40;81.40
52034;DHT22;38045;52.988;6.536;2024-03-22T09:12:00;9.50;81.50
52034;DHT22;38045;52.988;6.536;2024-03-22T09:14:26;9.50;81.40
52034;DHT22;38045;52.988;6.536;2024-03-22T09:16:52;9.40;81.50
52034;DHT22;38045;52.988;6.536;2024-03-22T09:19:17;9.40;81.50
52034;DHT22;38045;52.988;6.536;2024-03-22T09:21:43;9.40;81.60
52034;DHT22;38045;52.988;6.536;2024-03-22T09:24:09;9.40;81.50
52034;DHT22;38045;52.988;6.536;2024-03-22T09:26:35;9.40;81.70
52034;DHT22;38045;52.988;6.536;2024-03-22T09:29:00;9.40;81.60
52034;DHT22;38045;52.988;6.536;2024-03-22T09:31:26;9.40;81.70
52034;DHT22;38045;52.988;6.536;2024-03-22T09:33:52;9.40;81.90
52034;DHT22;38045;52.988;6.536;2024-03-22T09:36:18;9.40;81.70
52034;DHT22;38045;52.988;6.536;2024-03-22T09:38:43;9.40;81.90
52034;DHT22;38045;52.988;6.536;2024-03-22T09:41:09;9.40;82.00
52034;DHT22;38045;52.988;6.536;2024-03-22T09:43:36;9.40;81.90
52034;DHT22;38045;52.988;6.536;2024-03-22T09:46:03;9.50;81.90
52034;DHT22;38045;52.988;6.536;2024-03-22T09:48:29;9.50;81.70
52034;DHT22;38045;52.988;6.536;2024-03-22T09:50:55;9.50;81.80
52034;DHT22;38045;52.988;6.536;2024-03-22T09:53:22;9.40;81.90
52034;DHT22;38045;52.988;6.536;2024-03-22T09:55:52;9.40;81.80
52034;DHT22;38045;52.988;6.536;2024-03-22T09:58:23;9.50;81.80
52034;DHT22;38045;52.988;6.536;2024-03-22T10:00:48;9.50;81.90
52034;DHT22;38045;52.988;6.536;2024-03-22T10:03:14;9.40;81.90
52034;DHT22;38045;52.988;6.536;2024-03-22T10:05:41;9.40;81.90
52034;DHT22;38045;52.988;6.536;2024-03-22T10:08:06;9.40;82.00
52034;DHT22;38045;52.988;6.536;2024-03-22T10:10:35;9.50;81.90
52034;DHT22;38045;52.988;6.536;2024-03-22T10:13:02;9.50;82.00
52034;DHT22;38045;52.988;6.536;2024-03-22T10:15:28;9.50;82.00
52034;DHT22;38045;52.988;6.536;2024-03-22T10:17:56;9.50;82.00
52034;DHT22;38045;52.988;6.536;2024-03-22T10:20:22;9.50;82.00
52034;DHT22;38045;52.988;6.536;2024-03-22T10:23:00;9.50;82.00
52034;DHT22;38045;52.988;6.536;2024-03-22T10:25:27;9.50;82.10
52034;DHT22;38045;52.988;6.536;2024-03-22T10:27:56;9.50;82.10
52034;DHT22;38045;52.988;6.536;2024-03-22T10:30:23;9.60;82.20
52034;DHT22;38045;52.988;6.536;2024-03-22T10:32:49;9.60;82.00
52034;DHT22;38045;52.988;6.536;2024-03-22T10:35:15;9.60;82.00
52034;DHT22;38045;52.988;6.536;2024-03-22T10:37:42;9.50;82.10
52034;DHT22;38045;52.988;6.536;2024-03-22T10:40:08;9.50;82.10
52034;DHT22;38045;52.988;6.536;2024-03-22T10:42:44;9.50;82.20
52034;DHT22;38045;52.988;6.536;2024-03-22T10:45:10;9.50;82.30
52034;DHT22;38045;52.988;6.536;2024-03-22T10:47:37;9.50;82.20
52034;DHT22;38045;52.988;6.536;2024-03-22T10:50:07;9.60;82.10
52034;DHT22;38045;52.988;6.536;2024-03-22T10:52:57;9.50;82.00
52034;DHT22;38045;52.988;6.536;2024-03-22T10:55:28;9.50;82.20
52034;DHT22;38045;52.988;6.536;2024-03-22T10:57:57;9.50;82.10
52034;DHT22;38045;52.988;6.536;2024-03-22T11:00:33;9.50;82.10
52034;DHT22;38045;52.988;6.536;2024-03-22T11:03:01;9.50;82.10
52034;DHT22;38045;52.988;6.536;2024-03-22T11:05:27;9.50;82.00
52034;DHT22;38045;52.988;6.536;2024-03-22T11:08:05;9.50;82.10
52034;DHT22;38045;52.988;6.536;2024-03-22T11:10:34;9.60;82.20
52034;DHT22;38045;52.988;6.536;2024-03-22T11:13:03;9.60;82.10
52034;DHT22;38045;52.988;6.536;2024-03-22T11:15:30;9.70;82.10
52034;DHT22;38045;52.988;6.536;2024-03-22T11:17:56;9.70;82.10
52034;DHT22;38045;52.988;6.536;2024-03-22T11:20:22;9.70;82.10
52034;DHT22;38045;52.988;6.536;2024-03-22T11:22:47;9.70;82.10
52034;DHT22;38045;52.988;6.536;2024-03-22T11:25:13;9.60;81.50
52034;DHT22;38045;52.988;6.536;2024-03-22T11:27:39;9.60;81.50
52034;DHT22;38045;52.988;6.536;2024-03-22T11:30:05;9.50;81.60
52034;DHT22;38045;52.988;6.536;2024-03-22T11:32:30;9.50;81.60
52034;DHT22;38045;52.988;6.536;2024-03-22T11:34:57;9.50;81.70
52034;DHT22;38045;52.988;6.536;2024-03-22T11:37:22;9.50;81.90
52034;DHT22;38045;52.988;6.536;2024-03-22T11:39:48;9.50;82.00
52034;DHT22;38045;52.988;6.536;2024-03-22T11:42:15;9.60;82.00
52034;DHT22;38045;52.988;6.536;2024-03-22T11:44:42;9.70;81.90
52034;DHT22;38045;52.988;6.536;2024-03-22T11:47:08;9.60;81.90
52034;DHT22;38045;52.988;6.536;2024-03-22T11:49:34;9.70;81.90
52034;DHT22;38045;52.988;6.536;2024-03-22T11:52:00;9.70;81.80
52034;DHT22;38045;52.988;6.536;2024-03-22T11:54:26;9.70;81.60
52034;DHT22;38045;52.988;6.536;2024-03-22T11:56:55;9.60;81.60
52034;DHT22;38045;52.988;6.536;2024-03-22T11:59:20;9.50;81.50
52034;DHT22;38045;52.988;6.536;2024-03-22T12:01:46;9.40;81.40
52034;DHT22;38045;52.988;6.536;2024-03-22T12:04:12;9.40;81.40
52034;DHT22;38045;52.988;6.536;2024-03-22T12:06:44;9.40;81.00
52034;DHT22;38045;52.988;6.536;2024-03-22T12:09:13;9.30;80.70
52034;DHT22;38045;52.988;6.536;2024-03-22T12:11:40;9.20;81.00
52034;DHT22;38045;52.988;6.536;2024-03-22T12:14:06;9.20;80.90
52034;DHT22;38045;52.988;6.536;2024-03-22T12:16:31;9.20;81.30
52034;DHT22;38045;52.988;6.536;2024-03-22T12:18:57;9.20;80.30
52034;DHT22;38045;52.988;6.536;2024-03-22T12:21:24;9.20;80.80
52034;DHT22;38045;52.988;6.536;2024-03-22T12:23:49;9.30;80.60
52034;DHT22;38045;52.988;6.536;2024-03-22T12:26:15;9.40;80.70
52034;DHT22;38045;52.988;6.536;2024-03-22T12:28:41;9.30;80.10
52034;DHT22;38045;52.988;6.536;2024-03-22T12:31:08;9.40;80.30
52034;DHT22;38045;52.988;6.536;2024-03-22T12:33:34;9.40;79.90
52034;DHT22;38045;52.988;6.536;2024-03-22T12:35:59;9.40;79.50
52034;DHT22;38045;52.988;6.536;2024-03-22T12:38:25;9.40;79.90
52034;DHT22;38045;52.988;6.536;2024-03-22T12:40:51;9.30;80.00
52034;DHT22;38045;52.988;6.536;2024-03-22T12:43:17;9.30;79.90
52034;DHT22;38045;52.988;6.536;2024-03-22T12:45:42;9.20;79.00
52034;DHT22;38045;52.988;6.536;2024-03-22T12:48:08;9.20;79.10
52034;DHT22;38045;52.988;6.536;2024-03-22T12:50:34;9.20;79.20
52034;DHT22;38045;52.988;6.536;2024-03-22T12:53:00;9.20;79.00
52034;DHT22;38045;52.988;6.536;2024-03-22T12:55:26;9.20;78.50
52034;DHT22;38045;52.988;6.536;2024-03-22T12:57:54;9.20;78.70
52034;DHT22;38045;52.988;6.536;2024-03-22T13:00:19;9.20;79.10
52034;DHT22;38045;52.988;6.536;2024-03-22T13:02:46;9.30;78.90
52034;DHT22;38045;52.988;6.536;2024-03-22T13:05:12;9.30;79.00
52034;DHT22;38045;52.988;6.536;2024-03-22T13:07:37;9.40;78.80
52034;DHT22;38045;52.988;6.536;2024-03-22T13:10:03;9.30;78.70
52034;DHT22;38045;52.988;6.536;2024-03-22T13:12:29;9.40;78.80
52034;DHT22;38045;52.988;6.536;2024-03-22T13:15:00;9.40;79.00
52034;DHT22;38045;52.988;6.536;2024-03-22T13:17:26;9.40;78.90
52034;DHT22;38045;52.988;6.536;2024-03-22T13:19:51;9.40;78.30
52034;DHT22;38045;52.988;6.536;2024-03-22T13:22:17;9.40;78.20
52034;DHT22;38045;52.988;6.536;2024-03-22T13:24:47;9.40;78.40
52034;DHT22;38045;52.988;6.536;2024-03-22T13:27:13;9.40;78.60
52034;DHT22;38045;52.988;6.536;2024-03-22T13:29:42;9.40;78.80
52034;DHT22;38045;52.988;6.536;2024-03-22T13:32:08;9.40;78.80
52034;DHT22;38045;52.988;6.536;2024-03-22T13:34:39;9.40;78.40
52034;DHT22;38045;52.988;6.536;2024-03-22T13:37:05;9.40;78.20
52034;DHT22;38045;52.988;6.536;2024-03-22T13:39:33;9.40;78.20
52034;DHT22;38045;52.988;6.536;2024-03-22T13:41:59;9.40;78.10
52034;DHT22;38045;52.988;6.536;2024-03-22T13:44:24;9.40;77.90
52034;DHT22;38045;52.988;6.536;2024-03-22T13:46:50;9.40;78.20
52034;DHT22;38045;52.988;6.536;2024-03-22T13:49:17;9.40;77.40
52034;DHT22;38045;52.988;6.536;2024-03-22T13:51:49;9.40;77.70
52034;DHT22;38045;52.988;6.536;2024-03-22T13:54:15;9.40;78.40
52034;DHT22;38045;52.988;6.536;2024-03-22T13:56:41;9.40;77.50
52034;DHT22;38045;52.988;6.536;2024-03-22T13:59:07;9.40;77.30
52034;DHT22;38045;52.988;6.536;2024-03-22T14:01:36;9.40;77.70
52034;DHT22;38045;52.988;6.536;2024-03-22T14:04:02;9.40;76.90
52034;DHT22;38045;52.988;6.536;2024-03-22T14:06:30;9.40;77.20
52034;DHT22;38045;52.988;6.536;2024-03-22T14:08:56;9.40;77.70
52034;DHT22;38045;52.988;6.536;2024-03-22T14:11:26;9.50;77.60
52034;DHT22;38045;52.988;6.536;2024-03-22T14:13:52;9.50;77.50
52034;DHT22;38045;52.988;6.536;2024-03-22T14:16:18;9.50;76.60
52034;DHT22;38045;52.988;6.536;2024-03-22T14:18:43;9.50;76.80
52034;DHT22;38045;52.988;6.536;2024-03-22T14:21:09;9.50;76.50
52034;DHT22;38045;52.988;6.536;2024-03-22T14:23:34;9.50;77.10
52034;DHT22;38045;52.988;6.536;2024-03-22T14:26:00;9.50;76.60
52034;DHT22;38045;52.988;6.536;2024-03-22T14:28:26;9.50;77.00
52034;DHT22;38045;52.988;6.536;2024-03-22T14:30:51;9.60;77.00
52034;DHT22;38045;52.988;6.536;2024-03-22T14:33:17;9.60;76.10
52034;DHT22;38045;52.988;6.536;2024-03-22T14:35:43;9.50;73.90
52034;DHT22;38045;52.988;6.536;2024-03-22T14:38:08;9.40;73.70
52034;DHT22;38045;52.988;6.536;2024-03-22T14:40:34;9.40;73.80
52034;DHT22;38045;52.988;6.536;2024-03-22T14:43:03;9.40;73.30
52034;DHT22;38045;52.988;6.536;2024-03-22T14:45:30;9.30;73.30
52034;DHT22;38045;52.988;6.536;2024-03-22T14:47:59;9.20;71.10
52034;DHT22;38045;52.988;6.536;2024-03-22T14:50:42;9.20;73.20
52034;DHT22;38045;52.988;6.536;2024-03-22T14:53:08;9.20;70.10
52034;DHT22;38045;52.988;6.536;2024-03-22T14:55:34;9.20;70.60
52034;DHT22;38045;52.988;6.536;2024-03-22T14:58:02;9.20;71.60
52034;DHT22;38045;52.988;6.536;2024-03-22T15:00:27;9.20;71.10
52034;DHT22;38045;52.988;6.536;2024-03-22T15:02:54;9.20;70.30
52034;DHT22;38045;52.988;6.536;2024-03-22T15:05:19;9.20;71.80
52034;DHT22;38045;52.988;6.536;2024-03-22T15:07:45;9.20;70.50
52034;DHT22;38045;52.988;6.536;2024-03-22T15:10:11;9.20;70.30
52034;DHT22;38045;52.988;6.536;2024-03-22T15:12:36;9.10;70.60
52034;DHT22;38045;52.988;6.536;2024-03-22T15:15:02;9.10;70.50
52034;DHT22;38045;52.988;6.536;2024-03-22T15:17:29;9.00;71.30
52034;DHT22;38045;52.988;6.536;2024-03-22T15:19:55;9.00;72.30
52034;DHT22;38045;52.988;6.536;2024-03-22T15:22:21;9.10;72.00
52034;DHT22;38045;52.988;6.536;2024-03-22T15:24:48;9.10;71.80
52034;DHT22;38045;52.988;6.536;2024-03-22T15:27:14;9.00;71.50
52034;DHT22;38045;52.988;6.536;2024-03-22T15:29:40;9.00;71.70
52034;DHT22;38045;52.988;6.536;2024-03-22T15:32:06;9.00;72.20
52034;DHT22;38045;52.988;6.536;2024-03-22T15:34:32;9.00;72.20